sensor_id;sensor_type;location;lat;lon;timestamp;P1;P2;P0
62981;PMS5003;49075;53.988;27.678;2023-03-14T00:04:16;54.8;46.8;32.8
62981;PMS5003;49075;53.988;27.678;2023-03-14T00:09:18;51.2;44.4;31
62981;PMS5003;49075;53.988;27.678;2023-03-14T00:13:51;53.3;45.8;32.5
62981;PMS5003;49075;53.988;27.678;2023-03-14T00:19:16;53.8;46.2;33.6
62981;PMS5003;49075;53.988;27.678;2023-03-14T00:24:03;54.2;47;33
62981;PMS5003;49075;53.988;27.678;2023-03-14T00:28:34;51.8;45.2;32.2
62981;PMS5003;49075;53.988;27.678;2023-03-14T00:33:35;61;51.4;36.6
62981;PMS5003;49075;53.988;27.678;2023-03-14T00:39:16;57.2;48.6;33.8
62981;PMS5003;49075;53.988;27.678;2023-03-14T00:43:34;60.2;50.8;35
62981;PMS5003;49075;53.988;27.678;2023-03-14T00:48:35;60.4;51.2;36.6
62981;PMS5003;49075;53.988;27.678;2023-03-14T00:54:17;57.8;48.8;34
62981;PMS5003;49075;53.988;27.678;2023-03-14T00:58:34;56.4;47.4;34
62981;PMS5003;49075;53.988;27.678;2023-03-14T01:03:56;57.8;49;34.4
62981;PMS5003;49075;53.988;27.678;2023-03-14T01:09:02;55.8;47.8;34.6
62981;PMS5003;49075;53.988;27.678;2023-03-14T01:13:52;50.5;44;31.8
62981;PMS5003;49075;53.988;27.678;2023-03-14T01:19:02;54;46.8;33
62981;PMS5003;49075;53.988;27.678;2023-03-14T01:24:11;54.4;46.2;33.4
62981;PMS5003;49075;53.988;27.678;2023-03-14T01:29:16;49.6;43.6;31
62981;PMS5003;49075;53.988;27.678;2023-03-14T01:34:10;55.6;47.8;33.2
62981;PMS5003;49075;53.988;27.678;2023-03-14T01:39:16;55.6;47.4;33.6
62981;PMS5003;49075;53.988;27.678;2023-03-14T01:43:56;55.2;47.4;33.6
62981;PMS5003;49075;53.988;27.678;2023-03-14T01:49:18;54.6;46.6;33.6
62981;PMS5003;49075;53.988;27.678;2023-03-14T01:53:34;52.2;45.4;32.2
62981;PMS5003;49075;53.988;27.678;2023-03-14T01:59:03;53.8;46.2;33.8
62981;PMS5003;49075;53.988;27.678;2023-03-14T02:03:58;47;42;31
62981;PMS5003;49075;53.988;27.678;2023-03-14T02:09:11;58.6;49.6;35
62981;PMS5003;49075;53.988;27.678;2023-03-14T02:14:14;61.3;51.5;35.3
62981;PMS5003;49075;53.988;27.678;2023-03-14T02:18:48;60;51;35.2
62981;PMS5003;49075;53.988;27.678;2023-03-14T02:24:01;55.4;47.6;34
62981;PMS5003;49075;53.988;27.678;2023-03-14T02:29:16;53.4;46.2;31.2
62981;PMS5003;49075;53.988;27.678;2023-03-14T02:34:16;57;49.2;34.2
62981;PMS5003;49075;53.988;27.678;2023-03-14T02:38:46;52;44.6;31.8
62981;PMS5003;49075;53.988;27.678;2023-03-14T02:44:00;56.2;47;33.2
62981;PMS5003;49075;53.988;27.678;2023-03-14T02:49:03;52.6;45.2;32
62981;PMS5003;49075;53.988;27.678;2023-03-14T02:53:41;50.8;44.4;31.8
62981;PMS5003;49075;53.988;27.678;2023-03-14T02:58:52;51.4;44.8;32.2
62981;PMS5003;49075;53.988;27.678;2023-03-14T03:04:03;56.2;47.2;33
62981;PMS5003;49075;53.988;27.678;2023-03-14T03:09:16;57.8;49;34.4
62981;PMS5003;49075;53.988;27.678;2023-03-14T03:14:16;55.8;47.2;34.4
62981;PMS5003;49075;53.988;27.678;2023-03-14T03:18:38;58.3;50.3;34.3
62981;PMS5003;49075;53.988;27.678;2023-03-14T03:24:16;57.6;49.4;34.2
62981;PMS5003;49075;53.988;27.678;2023-03-14T03:29:03;50.8;44.2;30.8
62981;PMS5003;49075;53.988;27.678;2023-03-14T03:33:45;56.8;48;34.8
62981;PMS5003;49075;53.988;27.678;2023-03-14T03:38:46;52;45.6;32.6
62981;PMS5003;49075;53.988;27.678;2023-03-14T03:44:10;51.4;44.8;32
62981;PMS5003;49075;53.988;27.678;2023-03-14T03:48:39;52.2;44.8;32.2
62981;PMS5003;49075;53.988;27.678;2023-03-14T03:54:03;51.8;45;30.4
62981;PMS5003;49075;53.988;27.678;2023-03-14T03:59:17;58.6;49.2;34.6
62981;PMS5003;49075;53.988;27.678;2023-03-14T04:03:35;57;48.8;34.2
62981;PMS5003;49075;53.988;27.678;2023-03-14T04:09:17;54.8;46.8;32
62981;PMS5003;49075;53.988;27.678;2023-03-14T04:13:48;57.2;48;33
62981;PMS5003;49075;53.988;27.678;2023-03-14T04:18:44;58.8;50;34.3
62981;PMS5003;49075;53.988;27.678;2023-03-14T04:24:03;56.6;47.8;33.8
62981;PMS5003;49075;53.988;27.678;2023-03-14T04:28:35;57.8;48.8;34.2
62981;PMS5003;49075;53.988;27.678;2023-03-14T04:34:17;55.8;47.8;33.6
62981;PMS5003;49075;53.988;27.678;2023-03-14T04:39:11;59.6;50;34.4
62981;PMS5003;49075;53.988;27.678;2023-03-14T04:44:17;61.8;52.4;36.4
62981;PMS5003;49075;53.988;27.678;2023-03-14T04:48:57;61.6;51.6;35.6
62981;PMS5003;49075;53.988;27.678;2023-03-14T04:54:17;57;49;34.8
62981;PMS5003;49075;53.988;27.678;2023-03-14T04:58:43;58.2;49;33.6
62981;PMS5003;49075;53.988;27.678;2023-03-14T05:04:01;63.8;53.4;37.2
62981;PMS5003;49075;53.988;27.678;2023-03-14T05:08:55;59;49.4;34.4
62981;PMS5003;49075;53.988;27.678;2023-03-14T05:14:11;60;50.6;35.4
62981;PMS5003;49075;53.988;27.678;2023-03-14T05:19:11;61.5;51.8;35.8
62981;PMS5003;49075;53.988;27.678;2023-03-14T05:23:49;62.6;52;35.6
62981;PMS5003;49075;53.988;27.678;2023-03-14T05:28:45;60.4;51;34.8
62981;PMS5003;49075;53.988;27.678;2023-03-14T05:34:15;67;55.2;39.2
62981;PMS5003;49075;53.988;27.678;2023-03-14T05:39:15;66.8;55.2;38.6
62981;PMS5003;49075;53.988;27.678;2023-03-14T05:43:35;63.8;53.6;37.2
62981;PMS5003;49075;53.988;27.678;2023-03-14T05:48:59;65.8;54.4;37.8
62981;PMS5003;49075;53.988;27.678;2023-03-14T05:53:57;63;52.6;36
62981;PMS5003;49075;53.988;27.678;2023-03-14T05:58:47;65.2;53.6;37.2
62981;PMS5003;49075;53.988;27.678;2023-03-14T06:03:35;67.4;56;38.6
62981;PMS5003;49075;53.988;27.678;2023-03-14T06:08:37;61.6;50.6;34.6
62981;PMS5003;49075;53.988;27.678;2023-03-14T06:14:17;61.4;51.8;36
62981;PMS5003;49075;53.988;27.678;2023-03-14T06:19:17;61.8;52.3;36
62981;PMS5003;49075;53.988;27.678;2023-03-14T06:23:49;60.2;50.4;36
62981;PMS5003;49075;53.988;27.678;2023-03-14T06:29:17;62.4;51.6;36.2
62981;PMS5003;49075;53.988;27.678;2023-03-14T06:34:03;65;53.4;37.4
62981;PMS5003;49075;53.988;27.678;2023-03-14T06:38:35;62.4;52.8;35.6
62981;PMS5003;49075;53.988;27.678;2023-03-14T06:43:57;67.4;55.8;38.4
62981;PMS5003;49075;53.988;27.678;2023-03-14T06:49:11;64.6;54;37.2
62981;PMS5003;49075;53.988;27.678;2023-03-14T06:53:45;68.6;57;39
62981;PMS5003;49075;53.988;27.678;2023-03-14T06:59:01;60;50.6;34.4
62981;PMS5003;49075;53.988;27.678;2023-03-14T07:04:13;62;51.4;35.2
62981;PMS5003;49075;53.988;27.678;2023-03-14T07:08:45;57.6;48.2;34.6
62981;PMS5003;49075;53.988;27.678;2023-03-14T07:14:17;53.8;45.6;32.6
62981;PMS5003;49075;53.988;27.678;2023-03-14T07:18:35;51.8;44.8;32.5
62981;PMS5003;49075;53.988;27.678;2023-03-14T07:23:57;51;43.4;31.4
62981;PMS5003;49075;53.988;27.678;2023-03-14T07:29:03;50.8;43.8;31.8
62981;PMS5003;49075;53.988;27.678;2023-03-14T07:33:49;49.6;43.4;31
62981;PMS5003;49075;53.988;27.678;2023-03-14T07:38:45;47.6;42.4;31.4
62981;PMS5003;49075;53.988;27.678;2023-03-14T07:44:17;52.4;44.8;32.2
62981;PMS5003;49075;53.988;27.678;2023-03-14T07:49:17;57.4;47.8;33
62981;PMS5003;49075;53.988;27.678;2023-03-14T07:53:55;48.8;42.6;30.4
62981;PMS5003;49075;53.988;27.678;2023-03-14T07:59:09;45.4;40.2;29
62981;PMS5003;49075;53.988;27.678;2023-03-14T08:04:17;52.4;44.8;31.8
62981;PMS5003;49075;53.988;27.678;2023-03-14T08:09:15;53.6;45;31.2
62981;PMS5003;49075;53.988;27.678;2023-03-14T08:13:47;51;43.6;30.8
62981;PMS5003;49075;53.988;27.678;2023-03-14T08:18:57;46;39.4;28.8
62981;PMS5003;49075;53.988;27.678;2023-03-14T08:24:09;43.5;38;27.3
62981;PMS5003;49075;53.988;27.678;2023-03-14T08:28:45;46.6;39.2;27
62981;PMS5003;49075;53.988;27.678;2023-03-14T08:33:43;45.6;39.8;28
62981;PMS5003;49075;53.988;27.678;2023-03-14T08:39:13;40.8;36.4;26.6
62981;PMS5003;49075;53.988;27.678;2023-03-14T08:44:13;45.4;39.8;27.6
62981;PMS5003;49075;53.988;27.678;2023-03-14T08:48:35;48.8;41;29.8
62981;PMS5003;49075;53.988;27.678;2023-03-14T08:54:09;46.8;40.4;29.2
62981;PMS5003;49075;53.988;27.678;2023-03-14T08:58:59;49.2;41.8;30.2
62981;PMS5003;49075;53.988;27.678;2023-03-14T09:03:35;45.8;39.8;29.4
62981;PMS5003;49075;53.988;27.678;2023-03-14T09:08:57;44.8;38.6;26.8
62981;PMS5003;49075;53.988;27.678;2023-03-14T09:14:03;41.2;36;27
62981;PMS5003;49075;53.988;27.678;2023-03-14T09:19:17;37.4;34.4;25.2
62981;PMS5003;49075;53.988;27.678;2023-03-14T09:24:17;46.5;39.3;28
62981;PMS5003;49075;53.988;27.678;2023-03-14T09:28:45;44;38;27.6
62981;PMS5003;49075;53.988;27.678;2023-03-14T09:34:17;44;38.2;26.6
62981;PMS5003;49075;53.988;27.678;2023-03-14T09:38:51;40;35.8;27.2
62981;PMS5003;49075;53.988;27.678;2023-03-14T09:43:45;40.6;36.6;26.6
62981;PMS5003;49075;53.988;27.678;2023-03-14T09:48:57;40.8;36.4;27
62981;PMS5003;49075;53.988;27.678;2023-03-14T09:54:14;42.4;37.6;27.2
62981;PMS5003;49075;53.988;27.678;2023-03-14T09:58:35;44.6;38.8;28
62981;PMS5003;49075;53.988;27.678;2023-03-14T10:04:04;42.8;37.8;28
62981;PMS5003;49075;53.988;27.678;2023-03-14T10:08:38;45.2;39.6;29
62981;PMS5003;49075;53.988;27.678;2023-03-14T10:13:35;49.6;43;30.8
62981;PMS5003;49075;53.988;27.678;2023-03-14T10:19:17;43.8;38.8;28.6
62981;PMS5003;49075;53.988;27.678;2023-03-14T10:24:07;44.3;39.5;28.5
62981;PMS5003;49075;53.988;27.678;2023-03-14T10:28:46;47.6;41.8;30.4
62981;PMS5003;49075;53.988;27.678;2023-03-14T10:34:03;42.2;38.2;27.6
62981;PMS5003;49075;53.988;27.678;2023-03-14T10:38:49;45;39.8;29.2
62981;PMS5003;49075;53.988;27.678;2023-03-14T10:43:45;41;36.6;27
62981;PMS5003;49075;53.988;27.678;2023-03-14T10:49:16;43.6;38.6;28
62981;PMS5003;49075;53.988;27.678;2023-03-14T10:54:19;47;41.4;29
62981;PMS5003;49075;53.988;27.678;2023-03-14T10:59:12;45.4;39.4;29
62981;PMS5003;49075;53.988;27.678;2023-03-14T11:03:49;44;38.8;27.6
62981;PMS5003;49075;53.988;27.678;2023-03-14T11:09:18;43.8;38.6;27.8
62981;PMS5003;49075;53.988;27.678;2023-03-14T11:14:19;46.6;39.8;28.6
62981;PMS5003;49075;53.988;27.678;2023-03-14T11:18:40;40.6;36.6;26.2
62981;PMS5003;49075;53.988;27.678;2023-03-14T11:23:58;34;32.5;23.8
62981;PMS5003;49075;53.988;27.678;2023-03-14T11:29:18;39.4;35.6;26.6
62981;PMS5003;49075;53.988;27.678;2023-03-14T11:34:01;41;36.6;26.4
62981;PMS5003;49075;53.988;27.678;2023-03-14T11:38:55;39.8;35.8;26.6
62981;PMS5003;49075;53.988;27.678;2023-03-14T11:43:57;36;33.6;25.2
62981;PMS5003;49075;53.988;27.678;2023-03-14T11:49:19;39.6;35.8;25.4
62981;PMS5003;49075;53.988;27.678;2023-03-14T11:53:39;39.4;35.2;26
62981;PMS5003;49075;53.988;27.678;2023-03-14T11:58:49;42.2;36.8;27
62981;PMS5003;49075;53.988;27.678;2023-03-14T12:04:19;37.2;34.2;24.8
62981;PMS5003;49075;53.988;27.678;2023-03-14T12:08:43;37.6;34;25.8
62981;PMS5003;49075;53.988;27.678;2023-03-14T12:13:57;36.8;33.6;25
62981;PMS5003;49075;53.988;27.678;2023-03-14T12:20:15;40.2;35.4;26.2
62981;PMS5003;49075;53.988;27.678;2023-03-14T12:23:57;38.4;34.4;26
62981;PMS5003;49075;53.988;27.678;2023-03-14T12:29:17;42.5;36.8;26
62981;PMS5003;49075;53.988;27.678;2023-03-14T12:33:49;33.2;31.2;23
62981;PMS5003;49075;53.988;27.678;2023-03-14T12:39:19;35.6;33;24.6
62981;PMS5003;49075;53.988;27.678;2023-03-14T12:48:35;34.2;32;24.2
62981;PMS5003;49075;53.988;27.678;2023-03-14T12:54:14;37.4;34.2;25.8
62981;PMS5003;49075;53.988;27.678;2023-03-14T12:58:47;32.8;31;22.8
62981;PMS5003;49075;53.988;27.678;2023-03-14T13:03:37;35.4;33;24.8
62981;PMS5003;49075;53.988;27.678;2023-03-14T13:09:23;33.2;31.2;23.6
62981;PMS5003;49075;53.988;27.678;2023-03-14T13:14:17;34;31.8;23.6
62981;PMS5003;49075;53.988;27.678;2023-03-14T13:18:36;32.6;30.4;23
62981;PMS5003;49075;53.988;27.678;2023-03-14T13:24:20;35.8;33.6;25
62981;PMS5003;49075;53.988;27.678;2023-03-14T13:28:49;37.5;34.5;25
62981;PMS5003;49075;53.988;27.678;2023-03-14T13:33:35;34.6;32.6;25.2
62981;PMS5003;49075;53.988;27.678;2023-03-14T13:39:03;37.2;34.4;25.8
62981;PMS5003;49075;53.988;27.678;2023-03-14T13:43:40;34.4;32;23.8
62981;PMS5003;49075;53.988;27.678;2023-03-14T13:48:45;28.2;27.4;21.2
62981;PMS5003;49075;53.988;27.678;2023-03-14T13:54:11;32.4;31;23.6
62981;PMS5003;49075;53.988;27.678;2023-03-14T13:59:21;33;30.6;22.6
62981;PMS5003;49075;53.988;27.678;2023-03-14T14:03:55;34.6;32.6;23.2
62981;PMS5003;49075;53.988;27.678;2023-03-14T14:08:45;35;32.6;25
62981;PMS5003;49075;53.988;27.678;2023-03-14T14:14:19;31;30;22.4
62981;PMS5003;49075;53.988;27.678;2023-03-14T14:19:19;32.4;30.8;23
62981;PMS5003;49075;53.988;27.678;2023-03-14T14:23:57;34.6;32.2;24.8
62981;PMS5003;49075;53.988;27.678;2023-03-14T14:28:45;38.8;34.5;26.3
62981;PMS5003;49075;53.988;27.678;2023-03-14T14:34:19;31;29.8;23
62981;PMS5003;49075;53.988;27.678;2023-03-14T14:39:04;34.8;32.6;24.2
62981;PMS5003;49075;53.988;27.678;2023-03-14T14:43:36;35.2;32.2;25.4
62981;PMS5003;49075;53.988;27.678;2023-03-14T14:48:49;32.6;30.4;23
62981;PMS5003;49075;53.988;27.678;2023-03-14T14:54:19;35;32.4;25
62981;PMS5003;49075;53.988;27.678;2023-03-14T14:58:36;31.6;30.2;22.8
62981;PMS5003;49075;53.988;27.678;2023-03-14T15:04:11;34;31.6;24
62981;PMS5003;49075;53.988;27.678;2023-03-14T15:09:19;33.4;32;24.2
62981;PMS5003;49075;53.988;27.678;2023-03-14T15:13:35;32.8;31.4;23.6
62981;PMS5003;49075;53.988;27.678;2023-03-14T15:18:58;37;34.2;25.8
62981;PMS5003;49075;53.988;27.678;2023-03-14T15:24:05;33.5;31.2;23.8
62981;PMS5003;49075;53.988;27.678;2023-03-14T15:28:59;38.5;35;26.3
62981;PMS5003;49075;53.988;27.678;2023-03-14T15:34:03;30.8;29.4;22.6
62981;PMS5003;49075;53.988;27.678;2023-03-14T15:38:35;35.4;32.8;25
62981;PMS5003;49075;53.988;27.678;2023-03-14T15:44:19;34.8;32.6;24.8
62981;PMS5003;49075;53.988;27.678;2023-03-14T15:49:13;34.6;31.6;24
62981;PMS5003;49075;53.988;27.678;2023-03-14T15:54:19;36;33.2;24.2
62981;PMS5003;49075;53.988;27.678;2023-03-14T15:58:59;33;31.4;23.6
62981;PMS5003;49075;53.988;27.678;2023-03-14T16:04:19;33;31.6;24
62981;PMS5003;49075;53.988;27.678;2023-03-14T16:09:03;34.2;32.2;23.8
62981;PMS5003;49075;53.988;27.678;2023-03-14T16:14:05;35;32;24.2
62981;PMS5003;49075;53.988;27.678;2023-03-14T16:18:57;36.4;34.4;25.8
62981;PMS5003;49075;53.988;27.678;2023-03-14T16:23:45;34.6;32.4;24.8
62981;PMS5003;49075;53.988;27.678;2023-03-14T16:28:59;39.3;35.8;27
62981;PMS5003;49075;53.988;27.678;2023-03-14T16:33:47;37.6;34.6;25.2
62981;PMS5003;49075;53.988;27.678;2023-03-14T16:38:49;36.4;34.2;25.4
62981;PMS5003;49075;53.988;27.678;2023-03-14T16:44:05;40.4;35.6;26
62981;PMS5003;49075;53.988;27.678;2023-03-14T16:48:35;35;32.8;24
62981;PMS5003;49075;53.988;27.678;2023-03-14T16:53:51;37.6;34.8;26.6
62981;PMS5003;49075;53.988;27.678;2023-03-14T16:59:13;35.6;33.2;24.2
62981;PMS5003;49075;53.988;27.678;2023-03-14T17:04:19;38;34.6;25
62981;PMS5003;49075;53.988;27.678;2023-03-14T17:08:59;38.2;35.8;27
62981;PMS5003;49075;53.988;27.678;2023-03-14T17:13:57;30.4;28.4;20.6
62981;PMS5003;49075;53.988;27.678;2023-03-14T17:19:21;39.4;36;26.4
62981;PMS5003;49075;53.988;27.678;2023-03-14T17:24:21;41.6;37.2;27.6
62981;PMS5003;49075;53.988;27.678;2023-03-14T17:28:57;37.4;34.2;25
62981;PMS5003;49075;53.988;27.678;2023-03-14T17:33:35;32.5;30.8;23.5
62981;PMS5003;49075;53.988;27.678;2023-03-14T17:39:21;41.4;37.2;27.4
62981;PMS5003;49075;53.988;27.678;2023-03-14T17:43:47;35.8;33.4;25.6
62981;PMS5003;49075;53.988;27.678;2023-03-14T17:48:35;37.4;35.2;26
62981;PMS5003;49075;53.988;27.678;2023-03-14T17:53:49;40.8;37;26.6
62981;PMS5003;49075;53.988;27.678;2023-03-14T17:59:21;37.2;34.2;25.2
62981;PMS5003;49075;53.988;27.678;2023-03-14T18:03:43;33.8;32;24.6
62981;PMS5003;49075;53.988;27.678;2023-03-14T18:08:43;34.4;32.8;24.6
62981;PMS5003;49075;53.988;27.678;2023-03-14T18:14:21;43.6;38.2;28.4
62981;PMS5003;49075;53.988;27.678;2023-03-14T18:18:46;40.2;36.2;27
62981;PMS5003;49075;53.988;27.678;2023-03-14T18:23:55;40.6;37;26.6
62981;PMS5003;49075;53.988;27.678;2023-03-14T18:29:05;38.2;34.8;25.8
62981;PMS5003;49075;53.988;27.678;2023-03-14T18:33:35;42.3;37.8;27.5
62981;PMS5003;49075;53.988;27.678;2023-03-14T18:38:43;38.2;35.2;26.2
62981;PMS5003;49075;53.988;27.678;2023-03-14T18:43:57;36.4;33.4;25.2
62981;PMS5003;49075;53.988;27.678;2023-03-14T18:49:19;42.4;36.8;27.6
62981;PMS5003;49075;53.988;27.678;2023-03-14T18:54:11;39.6;36.4;26.2
62981;PMS5003;49075;53.988;27.678;2023-03-14T18:59:19;42.6;38;28
62981;PMS5003;49075;53.988;27.678;2023-03-14T19:04:05;41;37.4;27.8
62981;PMS5003;49075;53.988;27.678;2023-03-14T19:09:19;41.6;37;26.8
62981;PMS5003;49075;53.988;27.678;2023-03-14T19:14:03;43.2;38.2;27.4
62981;PMS5003;49075;53.988;27.678;2023-03-14T19:19:05;38.6;35.6;25.2
62981;PMS5003;49075;53.988;27.678;2023-03-14T19:23:55;40;36.4;27
62981;PMS5003;49075;53.988;27.678;2023-03-14T19:28:55;38.4;35.4;26.8
62981;PMS5003;49075;53.988;27.678;2023-03-14T19:34:11;37.8;35.3;25.5
62981;PMS5003;49075;53.988;27.678;2023-03-14T19:38:49;42.8;37.8;26.8
62981;PMS5003;49075;53.988;27.678;2023-03-14T19:43:35;42;37.8;27.4
62981;PMS5003;49075;53.988;27.678;2023-03-14T19:49:19;39.4;36.2;26.2
62981;PMS5003;49075;53.988;27.678;2023-03-14T19:54:19;41.5;37.3;26.8
62981;PMS5003;49075;53.988;27.678;2023-03-14T19:58:43;43.6;38;28.6
62981;PMS5003;49075;53.988;27.678;2023-03-14T20:04:11;43.2;38.8;29.2
62981;PMS5003;49075;53.988;27.678;2023-03-14T20:09:03;41.2;37.2;27.4
62981;PMS5003;49075;53.988;27.678;2023-03-14T20:13:35;40.6;37;26.8
62981;PMS5003;49075;53.988;27.678;2023-03-14T20:18:55;41;36.8;26.8
62981;PMS5003;49075;53.988;27.678;2023-03-14T20:24:05;41.4;37.8;27.2
62981;PMS5003;49075;53.988;27.678;2023-03-14T20:29:19;40.2;36.6;26.4
62981;PMS5003;49075;53.988;27.678;2023-03-14T20:34:19;39.6;35.4;25.2
62981;PMS5003;49075;53.988;27.678;2023-03-14T20:38:49;38.8;35.4;26
62981;PMS5003;49075;53.988;27.678;2023-03-14T20:44:19;36;34;25.3
62981;PMS5003;49075;53.988;27.678;2023-03-14T20:49:03;43;38;28
62981;PMS5003;49075;53.988;27.678;2023-03-14T20:53:43;38.5;35.8;26.8
62981;PMS5003;49075;53.988;27.678;2023-03-14T20:58:57;37.4;33.8;24.8
62981;PMS5003;49075;53.988;27.678;2023-03-14T21:04:17;40.2;36.6;26.8
62981;PMS5003;49075;53.988;27.678;2023-03-14T21:08:49;39.8;36.8;26
62981;PMS5003;49075;53.988;27.678;2023-03-14T21:13:57;42;38.2;29.2
62981;PMS5003;49075;53.988;27.678;2023-03-14T21:19:19;39;35.8;26.8
62981;PMS5003;49075;53.988;27.678;2023-03-14T21:23:35;43.8;38.6;28.6
62981;PMS5003;49075;53.988;27.678;2023-03-14T21:28:35;40.2;36.6;27.2
62981;PMS5003;49075;53.988;27.678;2023-03-14T21:34:17;45.6;39.8;29
62981;PMS5003;49075;53.988;27.678;2023-03-14T21:38:43;40.4;37;27
62981;PMS5003;49075;53.988;27.678;2023-03-14T21:43:57;39;36.2;26.8
62981;PMS5003;49075;53.988;27.678;2023-03-14T21:48:43;39.8;36.2;26.6
62981;PMS5003;49075;53.988;27.678;2023-03-14T21:54:19;43.5;39.8;29
62981;PMS5003;49075;53.988;27.678;2023-03-14T21:59:11;42.8;37.8;28.2
62981;PMS5003;49075;53.988;27.678;2023-03-14T22:04:19;41.4;37.6;27.2
62981;PMS5003;49075;53.988;27.678;2023-03-14T22:08:57;40.6;36.2;26.6
62981;PMS5003;49075;53.988;27.678;2023-03-14T22:14:19;38.2;35.8;26.2
62981;PMS5003;49075;53.988;27.678;2023-03-14T22:18:43;40.8;36.4;26.4
62981;PMS5003;49075;53.988;27.678;2023-03-14T22:24:05;37;34;24.6
62981;PMS5003;49075;53.988;27.678;2023-03-14T22:28:55;40;36.6;27.2
62981;PMS5003;49075;53.988;27.678;2023-03-14T22:34:11;35.8;34;25.4
62981;PMS5003;49075;53.988;27.678;2023-03-14T22:39:11;41.6;38.2;28.8
62981;PMS5003;49075;53.988;27.678;2023-03-14T22:44:05;41.4;36.4;26.6
62981;PMS5003;49075;53.988;27.678;2023-03-14T22:48:58;36.8;34.4;25
62981;PMS5003;49075;53.988;27.678;2023-03-14T22:54:19;38;35.3;26
62981;PMS5003;49075;53.988;27.678;2023-03-14T22:59:19;36.4;34;25
62981;PMS5003;49075;53.988;27.678;2023-03-14T23:03:35;45.4;40.4;29.4
62981;PMS5003;49075;53.988;27.678;2023-03-14T23:09:11;41.6;37.2;27.4
62981;PMS5003;49075;53.988;27.678;2023-03-14T23:14:03;40.6;37.2;26.8
62981;PMS5003;49075;53.988;27.678;2023-03-14T23:19:11;38;35.6;26.6
62981;PMS5003;49075;53.988;27.678;2023-03-14T23:23:44;37.4;35.2;26
62981;PMS5003;49075;53.988;27.678;2023-03-14T23:29:05;42.8;37.8;28
62981;PMS5003;49075;53.988;27.678;2023-03-14T23:34:19;39.6;36.6;26.2
62981;PMS5003;49075;53.988;27.678;2023-03-14T23:39:19;36.4;32.8;23.6
62981;PMS5003;49075;53.988;27.678;2023-03-14T23:43:49;41.4;37.4;27.4
62981;PMS5003;49075;53.988;27.678;2023-03-14T23:49:19;38.2;35.2;25.8
62981;PMS5003;49075;53.988;27.678;2023-03-14T23:54:03;40;36.5;27.5
62981;PMS5003;49075;53.988;27.678;2023-03-14T23:58:43;42;37.4;28.2
